sensor_id;sensor_type;location;lat;lon;timestamp;P1;durP1;ratioP1;P2;durP2;ratioP2
9409;SDS011;4744;52.576;13.568;2023-09-08T00:01:46;5.88;;;5.25;;
9409;SDS011;4744;52.576;13.568;2023-09-08T00:04:14;5.55;;;5.05;;
9409;SDS011;4744;52.576;13.568;2023-09-08T00:06:41;5.78;;;5.22;;
9409;SDS011;4744;52.576;13.568;2023-09-08T00:09:08;6.38;;;5.78;;
9409;SDS011;4744;52.576;13.568;2023-09-08T00:11:35;6.93;;;5.82;;
9409;SDS011;4744;52.576;13.568;2023-09-08T00:14:13;6.28;;;5.72;;
9409;SDS011;4744;52.576;13.568;2023-09-08T00:16:51;6.50;;;5.95;;
9409;SDS011;4744;52.576;13.568;2023-09-08T00:19:30;6.45;;;5.85;;
9409;SDS011;4744;52.576;13.568;2023-09-08T00:21:57;6.13;;;5.63;;
9409;SDS011;4744;52.576;13.568;2023-09-08T00:24:25;5.68;;;5.28;;
9409;SDS011;4744;52.576;13.568;2023-09-08T00:26:52;6.60;;;6.10;;
9409;SDS011;4744;52.576;13.568;2023-09-08T00:29:27;6.80;;;6.30;;
9409;SDS011;4744;52.576;13.568;2023-09-08T00:32:01;6.43;;;5.95;;
9409;SDS011;4744;52.576;13.568;2023-09-08T00:34:41;6.45;;;5.95;;
9409;SDS011;4744;52.576;13.568;2023-09-08T00:37:08;6.93;;;6.30;;
9409;SDS011;4744;52.576;13.568;2023-09-08T00:39:35;6.47;;;5.88;;
9409;SDS011;4744;52.576;13.568;2023-09-08T00:42:03;6.20;;;5.70;;
9409;SDS011;4744;52.576;13.568;2023-09-08T00:44:35;6.60;;;6.05;;
9409;SDS011;4744;52.576;13.568;2023-09-08T00:47:10;7.05;;;6.35;;
9409;SDS011;4744;52.576;13.568;2023-09-08T00:49:44;7.10;;;6.50;;
9409;SDS011;4744;52.576;13.568;2023-09-08T00:52:12;6.65;;;6.05;;
9409;SDS011;4744;52.576;13.568;2023-09-08T00:54:39;6.43;;;5.82;;
9409;SDS011;4744;52.576;13.568;2023-09-08T00:57:06;6.43;;;5.82;;
9409;SDS011;4744;52.576;13.568;2023-09-08T00:59:37;6.82;;;6.13;;
9409;SDS011;4744;52.576;13.568;2023-09-08T01:02:16;6.20;;;5.70;;
9409;SDS011;4744;52.576;13.568;2023-09-08T01:04:49;6.50;;;5.78;;
9409;SDS011;4744;52.576;13.568;2023-09-08T01:07:16;6.50;;;5.90;;
9409;SDS011;4744;52.576;13.568;2023-09-08T01:09:45;7.70;;;6.15;;
9409;SDS011;4744;52.576;13.568;2023-09-08T01:12:14;7.10;;;6.50;;
9409;SDS011;4744;52.576;13.568;2023-09-08T01:14:41;6.38;;;5.85;;
9409;SDS011;4744;52.576;13.568;2023-09-08T01:17:08;6.05;;;5.45;;
9409;SDS011;4744;52.576;13.568;2023-09-08T01:19:38;6.18;;;5.57;;
9409;SDS011;4744;52.576;13.568;2023-09-08T01:22:23;6.75;;;6.22;;
9409;SDS011;4744;52.576;13.568;2023-09-08T01:25:21;6.07;;;5.47;;
9409;SDS011;4744;52.576;13.568;2023-09-08T01:27:50;7.22;;;6.63;;
9409;SDS011;4744;52.576;13.568;2023-09-08T01:30:23;7.18;;;6.50;;
9409;SDS011;4744;52.576;13.568;2023-09-08T01:32:52;6.68;;;6.18;;
9409;SDS011;4744;52.576;13.568;2023-09-08T01:35:20;6.32;;;5.72;;
9409;SDS011;4744;52.576;13.568;2023-09-08T01:37:51;6.75;;;6.15;;
9409;SDS011;4744;52.576;13.568;2023-09-08T01:40:27;7.32;;;6.60;;
9409;SDS011;4744;52.576;13.568;2023-09-08T01:42:56;7.15;;;6.57;;
9409;SDS011;4744;52.576;13.568;2023-09-08T01:45:23;7.30;;;6.60;;
9409;SDS011;4744;52.576;13.568;2023-09-08T01:47:50;7.15;;;6.55;;
9409;SDS011;4744;52.576;13.568;2023-09-08T01:50:17;7.65;;;7.05;;
9409;SDS011;4744;52.576;13.568;2023-09-08T01:52:46;6.93;;;6.05;;
9409;SDS011;4744;52.576;13.568;2023-09-08T01:55:13;7.18;;;6.57;;
9409;SDS011;4744;52.576;13.568;2023-09-08T01:57:42;7.30;;;6.70;;
9409;SDS011;4744;52.576;13.568;2023-09-08T02:00:10;6.95;;;6.35;;
9409;SDS011;4744;52.576;13.568;2023-09-08T02:02:40;6.95;;;6.45;;
9409;SDS011;4744;52.576;13.568;2023-09-08T02:05:22;7.25;;;6.65;;
9409;SDS011;4744;52.576;13.568;2023-09-08T02:07:50;7.10;;;6.50;;
9409;SDS011;4744;52.576;13.568;2023-09-08T02:10:17;7.15;;;6.55;;
9409;SDS011;4744;52.576;13.568;2023-09-08T02:12:47;7.55;;;6.85;;
9409;SDS011;4744;52.576;13.568;2023-09-08T02:15:14;7.97;;;7.20;;
9409;SDS011;4744;52.576;13.568;2023-09-08T02:17:42;7.35;;;6.75;;
9409;SDS011;4744;52.576;13.568;2023-09-08T02:20:09;7.68;;;7.05;;
9409;SDS011;4744;52.576;13.568;2023-09-08T02:22:37;7.32;;;6.80;;
9409;SDS011;4744;52.576;13.568;2023-09-08T02:25:04;7.35;;;6.75;;
9409;SDS011;4744;52.576;13.568;2023-09-08T02:27:32;7.88;;;7.18;;
9409;SDS011;4744;52.576;13.568;2023-09-08T02:30:00;8.20;;;6.70;;
9409;SDS011;4744;52.576;13.568;2023-09-08T02:32:27;7.95;;;7.28;;
9409;SDS011;4744;52.576;13.568;2023-09-08T02:34:54;8.15;;;7.45;;
9409;SDS011;4744;52.576;13.568;2023-09-08T02:37:21;7.65;;;6.80;;
9409;SDS011;4744;52.576;13.568;2023-09-08T02:39:48;7.53;;;6.93;;
9409;SDS011;4744;52.576;13.568;2023-09-08T02:42:14;7.95;;;7.25;;
9409;SDS011;4744;52.576;13.568;2023-09-08T02:44:41;8.50;;;7.65;;
9409;SDS011;4744;52.576;13.568;2023-09-08T02:47:11;8.80;;;8.00;;
9409;SDS011;4744;52.576;13.568;2023-09-08T02:49:37;8.27;;;7.45;;
9409;SDS011;4744;52.576;13.568;2023-09-08T02:52:05;8.13;;;7.43;;
9409;SDS011;4744;52.576;13.568;2023-09-08T02:54:31;7.78;;;7.07;;
9409;SDS011;4744;52.576;13.568;2023-09-08T02:56:58;8.48;;;7.68;;
9409;SDS011;4744;52.576;13.568;2023-09-08T02:59:25;8.27;;;7.47;;
9409;SDS011;4744;52.576;13.568;2023-09-08T03:01:52;8.45;;;7.63;;
9409;SDS011;4744;52.576;13.568;2023-09-08T03:04:20;8.38;;;7.75;;
9409;SDS011;4744;52.576;13.568;2023-09-08T03:06:47;8.30;;;7.60;;
9409;SDS011;4744;52.576;13.568;2023-09-08T03:09:14;8.45;;;7.75;;
9409;SDS011;4744;52.576;13.568;2023-09-08T03:11:41;9.05;;;8.35;;
9409;SDS011;4744;52.576;13.568;2023-09-08T03:14:08;8.32;;;7.60;;
9409;SDS011;4744;52.576;13.568;2023-09-08T03:16:34;7.95;;;7.20;;
9409;SDS011;4744;52.576;13.568;2023-09-08T03:19:01;8.40;;;7.70;;
9409;SDS011;4744;52.576;13.568;2023-09-08T03:21:29;7.60;;;7.00;;
9409;SDS011;4744;52.576;13.568;2023-09-08T03:23:57;9.00;;;8.05;;
9409;SDS011;4744;52.576;13.568;2023-09-08T03:26:24;8.77;;;7.88;;
9409;SDS011;4744;52.576;13.568;2023-09-08T03:28:51;8.80;;;8.10;;
9409;SDS011;4744;52.576;13.568;2023-09-08T03:31:17;8.82;;;8.00;;
9409;SDS011;4744;52.576;13.568;2023-09-08T03:33:44;9.05;;;8.25;;
9409;SDS011;4744;52.576;13.568;2023-09-08T03:36:11;9.57;;;8.77;;
9409;SDS011;4744;52.576;13.568;2023-09-08T03:38:39;8.60;;;7.75;;
9409;SDS011;4744;52.576;13.568;2023-09-08T03:41:06;8.55;;;7.78;;
9409;SDS011;4744;52.576;13.568;2023-09-08T03:43:33;10.50;;;8.98;;
9409;SDS011;4744;52.576;13.568;2023-09-08T03:46:00;9.45;;;8.55;;
9409;SDS011;4744;52.576;13.568;2023-09-08T03:48:27;8.65;;;7.95;;
9409;SDS011;4744;52.576;13.568;2023-09-08T03:50:54;7.72;;;7.00;;
9409;SDS011;4744;52.576;13.568;2023-09-08T03:53:21;8.55;;;7.85;;
9409;SDS011;4744;52.576;13.568;2023-09-08T03:55:49;7.78;;;7.07;;
9409;SDS011;4744;52.576;13.568;2023-09-08T03:58:16;9.23;;;8.43;;
9409;SDS011;4744;52.576;13.568;2023-09-08T04:00:43;8.88;;;8.00;;
9409;SDS011;4744;52.576;13.568;2023-09-08T04:03:10;9.50;;;8.65;;
9409;SDS011;4744;52.576;13.568;2023-09-08T04:05:37;8.15;;;7.45;;
9409;SDS011;4744;52.576;13.568;2023-09-08T04:08:04;8.40;;;7.70;;
9409;SDS011;4744;52.576;13.568;2023-09-08T04:10:31;8.15;;;7.45;;
9409;SDS011;4744;52.576;13.568;2023-09-08T04:13:04;8.25;;;7.55;;
9409;SDS011;4744;52.576;13.568;2023-09-08T04:15:37;8.55;;;7.63;;
9409;SDS011;4744;52.576;13.568;2023-09-08T04:18:07;8.98;;;8.27;;
9409;SDS011;4744;52.576;13.568;2023-09-08T04:20:36;8.15;;;7.50;;
9409;SDS011;4744;52.576;13.568;2023-09-08T04:23:03;7.65;;;7.03;;
9409;SDS011;4744;52.576;13.568;2023-09-08T04:25:30;9.15;;;8.27;;
9409;SDS011;4744;52.576;13.568;2023-09-08T04:27:57;9.63;;;8.63;;
9409;SDS011;4744;52.576;13.568;2023-09-08T04:30:32;9.88;;;9.05;;
9409;SDS011;4744;52.576;13.568;2023-09-08T04:33:03;8.50;;;7.75;;
9409;SDS011;4744;52.576;13.568;2023-09-08T04:35:44;9.00;;;8.20;;
9409;SDS011;4744;52.576;13.568;2023-09-08T04:38:10;9.38;;;8.57;;
9409;SDS011;4744;52.576;13.568;2023-09-08T04:40:41;9.90;;;8.98;;
9409;SDS011;4744;52.576;13.568;2023-09-08T04:43:11;10.32;;;9.43;;
9409;SDS011;4744;52.576;13.568;2023-09-08T04:45:39;9.68;;;8.88;;
9409;SDS011;4744;52.576;13.568;2023-09-08T04:48:06;10.68;;;9.70;;
9409;SDS011;4744;52.576;13.568;2023-09-08T04:50:33;10.35;;;8.73;;
9409;SDS011;4744;52.576;13.568;2023-09-08T04:53:06;9.88;;;9.07;;
9409;SDS011;4744;52.576;13.568;2023-09-08T04:55:43;11.32;;;9.32;;
9409;SDS011;4744;52.576;13.568;2023-09-08T04:58:13;10.27;;;9.38;;
9409;SDS011;4744;52.576;13.568;2023-09-08T05:00:41;10.82;;;9.68;;
9409;SDS011;4744;52.576;13.568;2023-09-08T05:03:10;9.90;;;9.02;;
9409;SDS011;4744;52.576;13.568;2023-09-08T05:05:40;10.30;;;9.40;;
9409;SDS011;4744;52.576;13.568;2023-09-08T05:08:06;11.73;;;9.57;;
9409;SDS011;4744;52.576;13.568;2023-09-08T05:10:33;9.48;;;8.55;;
9409;SDS011;4744;52.576;13.568;2023-09-08T05:13:10;10.35;;;9.45;;
9409;SDS011;4744;52.576;13.568;2023-09-08T05:15:36;10.00;;;9.13;;
9409;SDS011;4744;52.576;13.568;2023-09-08T05:18:09;10.35;;;9.43;;
9409;SDS011;4744;52.576;13.568;2023-09-08T05:20:35;9.90;;;9.02;;
9409;SDS011;4744;52.576;13.568;2023-09-08T05:23:05;10.20;;;9.23;;
9409;SDS011;4744;52.576;13.568;2023-09-08T05:28:20;11.65;;;9.27;;
9409;SDS011;4744;52.576;13.568;2023-09-08T05:30:47;17.02;;;11.32;;
9409;SDS011;4744;52.576;13.568;2023-09-08T05:33:18;10.52;;;9.43;;
9409;SDS011;4744;52.576;13.568;2023-09-08T05:35:44;9.77;;;8.98;;
9409;SDS011;4744;52.576;13.568;2023-09-08T05:38:12;10.77;;;9.68;;
9409;SDS011;4744;52.576;13.568;2023-09-08T05:40:39;10.52;;;9.45;;
9409;SDS011;4744;52.576;13.568;2023-09-08T05:43:09;11.80;;;10.73;;
9409;SDS011;4744;52.576;13.568;2023-09-08T05:45:45;11.18;;;9.93;;
9409;SDS011;4744;52.576;13.568;2023-09-08T05:48:17;10.88;;;9.88;;
9409;SDS011;4744;52.576;13.568;2023-09-08T05:50:44;10.20;;;9.20;;
9409;SDS011;4744;52.576;13.568;2023-09-08T05:53:12;10.35;;;9.45;;
9409;SDS011;4744;52.576;13.568;2023-09-08T05:55:39;11.63;;;10.52;;
9409;SDS011;4744;52.576;13.568;2023-09-08T05:58:06;11.38;;;10.38;;
9409;SDS011;4744;52.576;13.568;2023-09-08T06:00:33;10.27;;;9.38;;
9409;SDS011;4744;52.576;13.568;2023-09-08T06:03:01;11.18;;;10.00;;
9409;SDS011;4744;52.576;13.568;2023-09-08T06:05:30;11.07;;;9.48;;
9409;SDS011;4744;52.576;13.568;2023-09-08T06:07:56;9.65;;;8.75;;
9409;SDS011;4744;52.576;13.568;2023-09-08T06:10:23;10.27;;;9.32;;
9409;SDS011;4744;52.576;13.568;2023-09-08T06:12:50;10.75;;;9.65;;
9409;SDS011;4744;52.576;13.568;2023-09-08T06:15:23;9.93;;;8.93;;
9409;SDS011;4744;52.576;13.568;2023-09-08T06:17:57;9.23;;;8.27;;
9409;SDS011;4744;52.576;13.568;2023-09-08T06:20:34;9.40;;;8.40;;
9409;SDS011;4744;52.576;13.568;2023-09-08T06:23:01;7.78;;;7.07;;
9409;SDS011;4744;52.576;13.568;2023-09-08T06:25:28;10.32;;;9.30;;
9409;SDS011;4744;52.576;13.568;2023-09-08T06:27:57;10.52;;;8.85;;
9409;SDS011;4744;52.576;13.568;2023-09-08T06:30:27;10.93;;;9.80;;
9409;SDS011;4744;52.576;13.568;2023-09-08T06:32:55;9.38;;;8.57;;
9409;SDS011;4744;52.576;13.568;2023-09-08T06:35:22;9.50;;;8.52;;
9409;SDS011;4744;52.576;13.568;2023-09-08T06:37:50;8.65;;;7.78;;
9409;SDS011;4744;52.576;13.568;2023-09-08T06:40:17;8.25;;;7.53;;
9409;SDS011;4744;52.576;13.568;2023-09-08T06:42:44;8.80;;;7.93;;
9409;SDS011;4744;52.576;13.568;2023-09-08T06:45:11;8.65;;;7.85;;
9409;SDS011;4744;52.576;13.568;2023-09-08T06:47:38;9.45;;;8.57;;
9409;SDS011;4744;52.576;13.568;2023-09-08T06:50:05;8.95;;;8.05;;
9409;SDS011;4744;52.576;13.568;2023-09-08T06:52:33;8.05;;;7.28;;
9409;SDS011;4744;52.576;13.568;2023-09-08T06:55:08;8.68;;;7.78;;
9409;SDS011;4744;52.576;13.568;2023-09-08T06:57:35;7.95;;;7.20;;
9409;SDS011;4744;52.576;13.568;2023-09-08T07:00:02;7.43;;;6.72;;
9409;SDS011;4744;52.576;13.568;2023-09-08T07:02:32;8.65;;;7.93;;
9409;SDS011;4744;52.576;13.568;2023-09-08T07:04:59;8.10;;;6.90;;
9409;SDS011;4744;52.576;13.568;2023-09-08T07:07:31;8.40;;;7.57;;
9409;SDS011;4744;52.576;13.568;2023-09-08T07:09:58;7.53;;;6.82;;
9409;SDS011;4744;52.576;13.568;2023-09-08T07:12:26;9.02;;;7.63;;
9409;SDS011;4744;52.576;13.568;2023-09-08T07:14:53;7.88;;;6.80;;
9409;SDS011;4744;52.576;13.568;2023-09-08T07:17:20;11.23;;;7.47;;
9409;SDS011;4744;52.576;13.568;2023-09-08T07:19:49;7.43;;;6.72;;
9409;SDS011;4744;52.576;13.568;2023-09-08T07:22:16;7.63;;;6.70;;
9409;SDS011;4744;52.576;13.568;2023-09-08T07:24:42;7.35;;;6.65;;
9409;SDS011;4744;52.576;13.568;2023-09-08T07:27:10;7.32;;;6.72;;
9409;SDS011;4744;52.576;13.568;2023-09-08T07:29:40;8.77;;;6.88;;
9409;SDS011;4744;52.576;13.568;2023-09-08T07:32:07;7.28;;;6.68;;
9409;SDS011;4744;52.576;13.568;2023-09-08T07:34:42;7.18;;;6.53;;
9409;SDS011;4744;52.576;13.568;2023-09-08T07:37:13;8.48;;;7.38;;
9409;SDS011;4744;52.576;13.568;2023-09-08T07:39:39;6.78;;;6.18;;
9409;SDS011;4744;52.576;13.568;2023-09-08T07:42:06;6.60;;;6.00;;
9409;SDS011;4744;52.576;13.568;2023-09-08T07:44:33;7.15;;;6.22;;
9409;SDS011;4744;52.576;13.568;2023-09-08T07:47:06;6.63;;;5.93;;
9409;SDS011;4744;52.576;13.568;2023-09-08T07:50:17;6.57;;;5.97;;
9409;SDS011;4744;52.576;13.568;2023-09-08T07:52:48;6.00;;;5.50;;
9409;SDS011;4744;52.576;13.568;2023-09-08T07:55:15;7.70;;;6.03;;
9409;SDS011;4744;52.576;13.568;2023-09-08T07:57:43;6.63;;;6.05;;
9409;SDS011;4744;52.576;13.568;2023-09-08T08:00:16;5.68;;;5.20;;
9409;SDS011;4744;52.576;13.568;2023-09-08T08:02:49;6.40;;;5.80;;
9409;SDS011;4744;52.576;13.568;2023-09-08T08:05:20;6.25;;;5.22;;
9409;SDS011;4744;52.576;13.568;2023-09-08T08:07:48;6.68;;;5.20;;
9409;SDS011;4744;52.576;13.568;2023-09-08T08:10:15;5.45;;;4.95;;
9409;SDS011;4744;52.576;13.568;2023-09-08T08:12:43;5.70;;;5.15;;
9409;SDS011;4744;52.576;13.568;2023-09-08T08:15:10;5.68;;;5.10;;
9409;SDS011;4744;52.576;13.568;2023-09-08T08:17:42;8.45;;;5.45;;
9409;SDS011;4744;52.576;13.568;2023-09-08T08:20:15;8.50;;;5.18;;
9409;SDS011;4744;52.576;13.568;2023-09-08T08:22:43;7.05;;;5.05;;
9409;SDS011;4744;52.576;13.568;2023-09-08T08:25:13;5.80;;;5.28;;
9409;SDS011;4744;52.576;13.568;2023-09-08T08:27:40;5.25;;;4.75;;
9409;SDS011;4744;52.576;13.568;2023-09-08T08:30:21;5.57;;;4.90;;
9409;SDS011;4744;52.576;13.568;2023-09-08T08:33:12;5.53;;;5.03;;
9409;SDS011;4744;52.576;13.568;2023-09-08T08:35:49;5.68;;;5.07;;
9409;SDS011;4744;52.576;13.568;2023-09-08T08:38:20;5.57;;;4.90;;
9409;SDS011;4744;52.576;13.568;2023-09-08T08:40:46;6.43;;;5.07;;
9409;SDS011;4744;52.576;13.568;2023-09-08T08:43:13;5.28;;;4.47;;
9409;SDS011;4744;52.576;13.568;2023-09-08T08:45:41;6.82;;;4.88;;
9409;SDS011;4744;52.576;13.568;2023-09-08T08:48:08;6.47;;;4.70;;
9409;SDS011;4744;52.576;13.568;2023-09-08T08:50:39;5.75;;;4.55;;
9409;SDS011;4744;52.576;13.568;2023-09-08T08:53:10;4.82;;;4.43;;
9409;SDS011;4744;52.576;13.568;2023-09-08T08:55:38;4.93;;;4.45;;
9409;SDS011;4744;52.576;13.568;2023-09-08T08:58:10;5.57;;;3.97;;
9409;SDS011;4744;52.576;13.568;2023-09-08T09:00:39;4.55;;;4.15;;
9409;SDS011;4744;52.576;13.568;2023-09-08T09:03:07;4.63;;;4.22;;
9409;SDS011;4744;52.576;13.568;2023-09-08T09:05:34;5.07;;;4.25;;
9409;SDS011;4744;52.576;13.568;2023-09-08T09:08:03;4.47;;;4.07;;
9409;SDS011;4744;52.576;13.568;2023-09-08T09:10:40;4.63;;;4.22;;
9409;SDS011;4744;52.576;13.568;2023-09-08T09:13:14;4.47;;;4.15;;
9409;SDS011;4744;52.576;13.568;2023-09-08T09:15:44;5.18;;;4.25;;
9409;SDS011;4744;52.576;13.568;2023-09-08T09:18:11;4.63;;;4.22;;
9409;SDS011;4744;52.576;13.568;2023-09-08T09:20:42;4.53;;;4.05;;
9409;SDS011;4744;52.576;13.568;2023-09-08T09:23:26;4.30;;;3.90;;
9409;SDS011;4744;52.576;13.568;2023-09-08T09:25:58;6.22;;;4.25;;
9409;SDS011;4744;52.576;13.568;2023-09-08T09:28:29;6.43;;;3.83;;
9409;SDS011;4744;52.576;13.568;2023-09-08T09:30:58;4.22;;;3.83;;
9409;SDS011;4744;52.576;13.568;2023-09-08T09:33:26;5.63;;;4.10;;
9409;SDS011;4744;52.576;13.568;2023-09-08T09:35:56;4.60;;;4.20;;
9409;SDS011;4744;52.576;13.568;2023-09-08T09:38:26;4.55;;;4.15;;
9409;SDS011;4744;52.576;13.568;2023-09-08T09:40:55;4.10;;;3.70;;
9409;SDS011;4744;52.576;13.568;2023-09-08T09:43:24;3.90;;;3.60;;
9409;SDS011;4744;52.576;13.568;2023-09-08T09:45:54;4.28;;;3.97;;
9409;SDS011;4744;52.576;13.568;2023-09-08T09:48:24;3.88;;;3.38;;
9409;SDS011;4744;52.576;13.568;2023-09-08T09:53:47;4.72;;;4.10;;
9409;SDS011;4744;52.576;13.568;2023-09-08T09:56:20;4.68;;;4.20;;
9409;SDS011;4744;52.576;13.568;2023-09-08T09:58:53;4.35;;;4.03;;
9409;SDS011;4744;52.576;13.568;2023-09-08T10:01:24;4.43;;;3.90;;
9409;SDS011;4744;52.576;13.568;2023-09-08T10:03:52;3.90;;;3.58;;
9409;SDS011;4744;52.576;13.568;2023-09-08T10:06:28;3.90;;;3.60;;
9409;SDS011;4744;52.576;13.568;2023-09-08T10:09:03;4.05;;;3.58;;
9409;SDS011;4744;52.576;13.568;2023-09-08T10:11:41;4.55;;;4.15;;
9409;SDS011;4744;52.576;13.568;2023-09-08T10:14:10;3.72;;;3.42;;
9409;SDS011;4744;52.576;13.568;2023-09-08T10:16:39;5.68;;;4.88;;
9409;SDS011;4744;52.576;13.568;2023-09-08T10:19:07;3.67;;;3.38;;
9409;SDS011;4744;52.576;13.568;2023-09-08T10:21:45;4.22;;;3.10;;
9409;SDS011;4744;52.576;13.568;2023-09-08T10:24:14;3.58;;;3.25;;
9409;SDS011;4744;52.576;13.568;2023-09-08T10:29:35;3.95;;;3.55;;
9409;SDS011;4744;52.576;13.568;2023-09-08T10:32:31;5.15;;;3.42;;
9409;SDS011;4744;52.576;13.568;2023-09-08T10:35:13;3.58;;;3.38;;
9409;SDS011;4744;52.576;13.568;2023-09-08T10:38:03;4.70;;;3.35;;
9409;SDS011;4744;52.576;13.568;2023-09-08T10:40:51;3.80;;;3.50;;
9409;SDS011;4744;52.576;13.568;2023-09-08T10:43:43;3.47;;;3.17;;
9409;SDS011;4744;52.576;13.568;2023-09-08T10:46:20;4.18;;;3.33;;
9409;SDS011;4744;52.576;13.568;2023-09-08T10:48:54;4.15;;;3.25;;
9409;SDS011;4744;52.576;13.568;2023-09-08T10:51:42;3.70;;;3.33;;
9409;SDS011;4744;52.576;13.568;2023-09-08T10:54:10;4.40;;;3.90;;
9409;SDS011;4744;52.576;13.568;2023-09-08T10:56:54;4.28;;;3.25;;
9409;SDS011;4744;52.576;13.568;2023-09-08T10:59:23;4.10;;;3.30;;
9409;SDS011;4744;52.576;13.568;2023-09-08T11:02:02;3.97;;;3.53;;
9409;SDS011;4744;52.576;13.568;2023-09-08T11:04:29;3.80;;;3.50;;
9409;SDS011;4744;52.576;13.568;2023-09-08T11:06:58;3.92;;;3.63;;
9409;SDS011;4744;52.576;13.568;2023-09-08T11:12:10;3.85;;;3.55;;
9409;SDS011;4744;52.576;13.568;2023-09-08T11:14:38;4.55;;;3.58;;
9409;SDS011;4744;52.576;13.568;2023-09-08T11:17:05;3.60;;;3.40;;
9409;SDS011;4744;52.576;13.568;2023-09-08T11:19:42;3.80;;;3.50;;
9409;SDS011;4744;52.576;13.568;2023-09-08T11:22:11;5.30;;;3.85;;
9409;SDS011;4744;52.576;13.568;2023-09-08T11:24:38;4.13;;;3.70;;
9409;SDS011;4744;52.576;13.568;2023-09-08T11:27:25;3.40;;;3.20;;
9409;SDS011;4744;52.576;13.568;2023-09-08T11:29:55;3.90;;;3.60;;
9409;SDS011;4744;52.576;13.568;2023-09-08T11:32:22;4.45;;;3.40;;
9409;SDS011;4744;52.576;13.568;2023-09-08T11:34:51;4.13;;;3.83;;
9409;SDS011;4744;52.576;13.568;2023-09-08T11:37:18;3.80;;;3.40;;
9409;SDS011;4744;52.576;13.568;2023-09-08T11:39:49;3.58;;;3.30;;
9409;SDS011;4744;52.576;13.568;2023-09-08T11:42:24;4.03;;;3.72;;
9409;SDS011;4744;52.576;13.568;2023-09-08T11:45:07;3.67;;;3.38;;
9409;SDS011;4744;52.576;13.568;2023-09-08T11:47:34;3.95;;;3.65;;
9409;SDS011;4744;52.576;13.568;2023-09-08T11:50:02;4.57;;;3.83;;
9409;SDS011;4744;52.576;13.568;2023-09-08T11:52:29;4.13;;;3.20;;
9409;SDS011;4744;52.576;13.568;2023-09-08T11:55:00;4.03;;;3.63;;
9409;SDS011;4744;52.576;13.568;2023-09-08T11:57:36;3.72;;;3.42;;
9409;SDS011;4744;52.576;13.568;2023-09-08T12:00:06;4.65;;;4.03;;
9409;SDS011;4744;52.576;13.568;2023-09-08T12:02:52;5.68;;;4.35;;
9409;SDS011;4744;52.576;13.568;2023-09-08T12:05:23;4.28;;;3.72;;
9409;SDS011;4744;52.576;13.568;2023-09-08T12:07:57;4.15;;;3.78;;
9409;SDS011;4744;52.576;13.568;2023-09-08T12:10:24;4.22;;;3.85;;
9409;SDS011;4744;52.576;13.568;2023-09-08T12:12:53;3.85;;;3.63;;
9409;SDS011;4744;52.576;13.568;2023-09-08T12:15:32;4.32;;;3.67;;
9409;SDS011;4744;52.576;13.568;2023-09-08T12:18:01;3.92;;;3.53;;
9409;SDS011;4744;52.576;13.568;2023-09-08T12:21:02;3.90;;;3.60;;
9409;SDS011;4744;52.576;13.568;2023-09-08T12:23:42;3.72;;;3.42;;
9409;SDS011;4744;52.576;13.568;2023-09-08T12:26:20;3.80;;;3.50;;
9409;SDS011;4744;52.576;13.568;2023-09-08T12:28:59;4.40;;;4.10;;
9409;SDS011;4744;52.576;13.568;2023-09-08T12:31:27;3.83;;;3.35;;
9409;SDS011;4744;52.576;13.568;2023-09-08T12:33:55;3.67;;;3.38;;
9409;SDS011;4744;52.576;13.568;2023-09-08T12:36:23;4.18;;;3.88;;
9409;SDS011;4744;52.576;13.568;2023-09-08T12:38:55;3.63;;;3.35;;
9409;SDS011;4744;52.576;13.568;2023-09-08T12:41:27;3.70;;;3.40;;
9409;SDS011;4744;52.576;13.568;2023-09-08T12:43:54;4.38;;;3.97;;
9409;SDS011;4744;52.576;13.568;2023-09-08T12:46:33;4.30;;;3.92;;
9409;SDS011;4744;52.576;13.568;2023-09-08T12:49:02;4.22;;;3.92;;
9409;SDS011;4744;52.576;13.568;2023-09-08T12:51:29;4.72;;;3.90;;
9409;SDS011;4744;52.576;13.568;2023-09-08T12:53:56;4.65;;;4.07;;
9409;SDS011;4744;52.576;13.568;2023-09-08T12:56:23;4.43;;;3.90;;
9409;SDS011;4744;52.576;13.568;2023-09-08T12:58:56;4.15;;;3.75;;
9409;SDS011;4744;52.576;13.568;2023-09-08T13:01:31;4.32;;;3.92;;
9409;SDS011;4744;52.576;13.568;2023-09-08T13:04:02;4.45;;;4.00;;
9409;SDS011;4744;52.576;13.568;2023-09-08T13:06:45;5.05;;;4.20;;
9409;SDS011;4744;52.576;13.568;2023-09-08T13:09:18;4.18;;;3.88;;
9409;SDS011;4744;52.576;13.568;2023-09-08T13:11:45;3.72;;;3.42;;
9409;SDS011;4744;52.576;13.568;2023-09-08T13:14:12;3.95;;;3.63;;
9409;SDS011;4744;52.576;13.568;2023-09-08T13:16:43;4.25;;;3.80;;
9409;SDS011;4744;52.576;13.568;2023-09-08T13:19:20;4.57;;;3.85;;
9409;SDS011;4744;52.576;13.568;2023-09-08T13:21:52;3.95;;;3.70;;
9409;SDS011;4744;52.576;13.568;2023-09-08T13:24:19;4.40;;;4.00;;
9409;SDS011;4744;52.576;13.568;2023-09-08T13:26:47;4.35;;;3.97;;
9409;SDS011;4744;52.576;13.568;2023-09-08T13:29:14;4.03;;;3.72;;
9409;SDS011;4744;52.576;13.568;2023-09-08T13:31:43;4.22;;;3.83;;
9409;SDS011;4744;52.576;13.568;2023-09-08T13:34:13;4.00;;;3.65;;
9409;SDS011;4744;52.576;13.568;2023-09-08T13:36:53;3.72;;;3.50;;
9409;SDS011;4744;52.576;13.568;2023-09-08T13:39:20;5.38;;;3.67;;
9409;SDS011;4744;52.576;13.568;2023-09-08T13:41:55;3.95;;;3.65;;
9409;SDS011;4744;52.576;13.568;2023-09-08T13:44:26;4.72;;;3.63;;
9409;SDS011;4744;52.576;13.568;2023-09-08T13:46:55;4.50;;;3.92;;
9409;SDS011;4744;52.576;13.568;2023-09-08T13:49:22;3.60;;;3.30;;
9409;SDS011;4744;52.576;13.568;2023-09-08T13:51:49;4.05;;;3.75;;
9409;SDS011;4744;52.576;13.568;2023-09-08T13:54:17;4.40;;;3.50;;
9409;SDS011;4744;52.576;13.568;2023-09-08T13:56:57;4.18;;;3.78;;
9409;SDS011;4744;52.576;13.568;2023-09-08T13:59:25;3.70;;;3.40;;
9409;SDS011;4744;52.576;13.568;2023-09-08T14:02:00;3.25;;;2.95;;
9409;SDS011;4744;52.576;13.568;2023-09-08T14:04:29;3.95;;;3.65;;
9409;SDS011;4744;52.576;13.568;2023-09-08T14:06:56;4.45;;;3.72;;
9409;SDS011;4744;52.576;13.568;2023-09-08T14:09:23;4.97;;;4.25;;
9409;SDS011;4744;52.576;13.568;2023-09-08T14:11:51;3.83;;;3.50;;
9409;SDS011;4744;52.576;13.568;2023-09-08T14:14:19;4.30;;;3.90;;
9409;SDS011;4744;52.576;13.568;2023-09-08T14:16:46;4.00;;;3.70;;
9409;SDS011;4744;52.576;13.568;2023-09-08T14:19:15;4.30;;;4.00;;
9409;SDS011;4744;52.576;13.568;2023-09-08T14:21:42;4.22;;;3.83;;
9409;SDS011;4744;52.576;13.568;2023-09-08T14:24:21;4.40;;;4.10;;
9409;SDS011;4744;52.576;13.568;2023-09-08T14:26:52;3.60;;;3.40;;
9409;SDS011;4744;52.576;13.568;2023-09-08T14:29:20;3.80;;;3.50;;
9409;SDS011;4744;52.576;13.568;2023-09-08T14:31:52;6.75;;;3.88;;
9409;SDS011;4744;52.576;13.568;2023-09-08T14:34:33;4.22;;;3.92;;
9409;SDS011;4744;52.576;13.568;2023-09-08T14:37:06;4.68;;;4.25;;
9409;SDS011;4744;52.576;13.568;2023-09-08T14:39:38;4.45;;;3.75;;
9409;SDS011;4744;52.576;13.568;2023-09-08T14:42:09;4.60;;;3.92;;
9409;SDS011;4744;52.576;13.568;2023-09-08T14:45:00;4.25;;;3.85;;
9409;SDS011;4744;52.576;13.568;2023-09-08T14:47:44;3.97;;;3.60;;
9409;SDS011;4744;52.576;13.568;2023-09-08T14:50:31;4.00;;;3.70;;
9409;SDS011;4744;52.576;13.568;2023-09-08T14:53:03;3.90;;;3.60;;
9409;SDS011;4744;52.576;13.568;2023-09-08T14:55:58;4.25;;;3.90;;
9409;SDS011;4744;52.576;13.568;2023-09-08T14:58:24;4.15;;;3.85;;
9409;SDS011;4744;52.576;13.568;2023-09-08T15:00:56;3.90;;;3.60;;
9409;SDS011;4744;52.576;13.568;2023-09-08T15:03:36;3.75;;;3.45;;
9409;SDS011;4744;52.576;13.568;2023-09-08T15:08:52;4.40;;;3.95;;
9409;SDS011;4744;52.576;13.568;2023-09-08T15:11:37;4.30;;;4.00;;
9409;SDS011;4744;52.576;13.568;2023-09-08T15:14:04;4.00;;;3.60;;
9409;SDS011;4744;52.576;13.568;2023-09-08T15:16:37;4.70;;;4.30;;
9409;SDS011;4744;52.576;13.568;2023-09-08T15:19:10;4.35;;;4.05;;
9409;SDS011;4744;52.576;13.568;2023-09-08T15:21:39;4.00;;;3.70;;
9409;SDS011;4744;52.576;13.568;2023-09-08T15:24:31;3.95;;;3.65;;
9409;SDS011;4744;52.576;13.568;2023-09-08T15:27:09;4.57;;;3.97;;
9409;SDS011;4744;52.576;13.568;2023-09-08T15:29:58;5.00;;;4.13;;
9409;SDS011;4744;52.576;13.568;2023-09-08T15:32:29;4.57;;;4.18;;
9409;SDS011;4744;52.576;13.568;2023-09-08T15:35:01;4.78;;;4.03;;
9409;SDS011;4744;52.576;13.568;2023-09-08T15:37:34;4.45;;;4.05;;